sensor_id;sensor_type;location;lat;lon;timestamp;pressure;altitude;pressure_sealevel;temperature;humidity
16431;BME280;8325;49.284;7.238;2022-09-09T04:00:31;98334.50;;;14.57;89.09
16431;BME280;8325;49.284;7.238;2022-09-09T04:04:43;98328.84;;;14.60;89.37
16431;BME280;8325;49.284;7.238;2022-09-09T04:08:56;98325.38;;;14.53;89.49
16431;BME280;8325;49.284;7.238;2022-09-09T04:13:10;98337.31;;;14.48;89.78
16431;BME280;8325;49.284;7.238;2022-09-09T04:17:24;98329.41;;;14.48;90.15
16431;BME280;8325;49.284;7.238;2022-09-09T04:21:35;98336.69;;;14.46;90.38
16431;BME280;8325;49.284;7.238;2022-09-09T04:25:49;98343.16;;;14.50;89.95
16431;BME280;8325;49.284;7.238;2022-09-09T04:30:02;98344.38;;;14.48;90.51
16431;BME280;8325;49.284;7.238;2022-09-09T04:34:16;98342.34;;;14.50;90.81
16431;BME280;8325;49.284;7.238;2022-09-09T04:38:28;98347.81;;;14.48;90.95
16431;BME280;8325;49.284;7.238;2022-09-09T04:42:40;98347.66;;;14.57;91.03
16431;BME280;8325;49.284;7.238;2022-09-09T04:46:57;98353.31;;;14.54;91.02
16431;BME280;8325;49.284;7.238;2022-09-09T04:51:11;98349.03;;;14.59;91.06
16431;BME280;8325;49.284;7.238;2022-09-09T04:55:23;98345.59;;;14.59;91.26
16431;BME280;8325;49.284;7.238;2022-09-09T04:59:35;98340.56;;;14.64;90.87
16431;BME280;8325;49.284;7.238;2022-09-09T05:03:47;98348.44;;;14.64;90.84
16431;BME280;8325;49.284;7.238;2022-09-09T05:08:04;98349.25;;;14.64;91.31
16431;BME280;8325;49.284;7.238;2022-09-09T05:12:16;98355.50;;;14.70;90.60
16431;BME280;8325;49.284;7.238;2022-09-09T05:16:34;98356.91;;;14.72;91.04
16431;BME280;8325;49.284;7.238;2022-09-09T05:20:45;98361.13;;;14.80;90.79
16431;BME280;8325;49.284;7.238;2022-09-09T05:24:57;98364.78;;;14.79;91.34
16431;BME280;8325;49.284;7.238;2022-09-09T05:29:09;98372.06;;;14.77;92.00
16431;BME280;8325;49.284;7.238;2022-09-09T05:33:22;98365.81;;;14.78;92.03
16431;BME280;8325;49.284;7.238;2022-09-09T05:37:33;98376.31;;;14.78;92.49
16431;BME280;8325;49.284;7.238;2022-09-09T05:41:46;98368.84;;;14.75;92.88
16431;BME280;8325;49.284;7.238;2022-09-09T05:46:00;98375.09;;;14.74;93.26
16431;BME280;8325;49.284;7.238;2022-09-09T05:50:13;98378.34;;;14.76;93.38
16431;BME280;8325;49.284;7.238;2022-09-09T05:54:25;98389.25;;;14.80;93.47
16431;BME280;8325;49.284;7.238;2022-09-09T05:58:38;98385.41;;;14.82;92.78
16431;BME280;8325;49.284;7.238;2022-09-09T06:02:53;98387.63;;;14.92;92.87
16431;BME280;8325;49.284;7.238;2022-09-09T06:07:06;98382.97;;;14.94;92.77
16431;BME280;8325;49.284;7.238;2022-09-09T06:11:21;98391.25;;;14.98;92.70
16431;BME280;8325;49.284;7.238;2022-09-09T06:15:33;98391.44;;;15.03;92.41
16431;BME280;8325;49.284;7.238;2022-09-09T06:19:48;98396.88;;;15.08;92.59
16431;BME280;8325;49.284;7.238;2022-09-09T06:24:00;98391.63;;;15.08;92.07
16431;BME280;8325;49.284;7.238;2022-09-09T06:28:12;98392.22;;;15.10;91.19
16431;BME280;8325;49.284;7.238;2022-09-09T06:32:24;98398.50;;;15.15;91.87
16431;BME280;8325;49.284;7.238;2022-09-09T06:36:39;98395.63;;;15.17;91.68
16431;BME280;8325;49.284;7.238;2022-09-09T06:40:56;98394.41;;;15.19;91.62
16431;BME280;8325;49.284;7.238;2022-09-09T06:45:09;98394.00;;;15.23;91.40
16431;BME280;8325;49.284;7.238;2022-09-09T06:49:29;98396.19;;;15.32;90.31
16431;BME280;8325;49.284;7.238;2022-09-09T06:53:42;98388.31;;;15.32;90.66
16431;BME280;8325;49.284;7.238;2022-09-09T06:57:55;98388.31;;;15.32;90.68
16431;BME280;8325;49.284;7.238;2022-09-09T07:02:07;98387.47;;;15.38;90.70
16431;BME280;8325;49.284;7.238;2022-09-09T07:06:24;98385.03;;;15.43;90.67
16431;BME280;8325;49.284;7.238;2022-09-09T07:10:36;98396.34;;;15.51;90.09
16431;BME280;8325;49.284;7.238;2022-09-09T07:14:48;98396.47;;;15.62;89.12
16431;BME280;8325;49.284;7.238;2022-09-09T07:18:59;98400.13;;;15.68;89.04
16431;BME280;8325;49.284;7.238;2022-09-09T07:23:13;98402.72;;;15.75;88.08
16431;BME280;8325;49.284;7.238;2022-09-09T07:27:24;98397.22;;;15.83;88.32
16431;BME280;8325;49.284;7.238;2022-09-09T07:31:38;98403.03;;;15.98;87.33
16431;BME280;8325;49.284;7.238;2022-09-09T07:35:53;98408.66;;;16.02;86.69
16431;BME280;8325;49.284;7.238;2022-09-09T07:40:06;98404.91;;;16.16;86.29
16431;BME280;8325;49.284;7.238;2022-09-09T07:44:20;98410.19;;;16.16;86.00
16431;BME280;8325;49.284;7.238;2022-09-09T07:48:35;98411.75;;;16.24;85.48
16431;BME280;8325;49.284;7.238;2022-09-09T07:52:48;98409.75;;;16.19;85.28
16431;BME280;8325;49.284;7.238;2022-09-09T07:56:59;98410.31;;;16.28;85.35
16431;BME280;8325;49.284;7.238;2022-09-09T08:01:23;98418.72;;;16.43;82.65
16431;BME280;8325;49.284;7.238;2022-09-09T08:05:35;98418.50;;;16.45;83.51
16431;BME280;8325;49.284;7.238;2022-09-09T08:09:46;98419.00;;;16.60;81.74
16431;BME280;8325;49.284;7.238;2022-09-09T08:14:13;98424.84;;;16.62;81.67
16431;BME280;8325;49.284;7.238;2022-09-09T08:18:26;98416.66;;;16.70;80.68
16431;BME280;8325;49.284;7.238;2022-09-09T08:22:39;98419.44;;;16.82;80.33
16431;BME280;8325;49.284;7.238;2022-09-09T08:26:52;98425.81;;;16.93;79.40
16431;BME280;8325;49.284;7.238;2022-09-09T08:31:25;98425.19;;;17.16;78.56
16431;BME280;8325;49.284;7.238;2022-09-09T08:35:37;98428.34;;;17.24;78.55
16431;BME280;8325;49.284;7.238;2022-09-09T08:39:49;98427.91;;;17.09;77.97
16431;BME280;8325;49.284;7.238;2022-09-09T08:49:22;98427.44;;;16.94;80.03
16431;BME280;8325;49.284;7.238;2022-09-09T08:53:42;98430.38;;;17.04;80.04
16431;BME280;8325;49.284;7.238;2022-09-09T08:57:57;98438.91;;;17.24;77.39
16431;BME280;8325;49.284;7.238;2022-09-09T09:06:54;98428.44;;;17.85;74.35
16431;BME280;8325;49.284;7.238;2022-09-09T09:11:11;98431.00;;;17.91;73.69
16431;BME280;8325;49.284;7.238;2022-09-09T09:15:25;98436.06;;;17.93;73.37
16431;BME280;8325;49.284;7.238;2022-09-09T09:19:43;98424.88;;;18.09;71.86
16431;BME280;8325;49.284;7.238;2022-09-09T09:23:59;98426.50;;;18.10;71.83
16431;BME280;8325;49.284;7.238;2022-09-09T09:28:25;98423.06;;;17.91;71.17
16431;BME280;8325;49.284;7.238;2022-09-09T09:32:55;98425.97;;;17.90;71.87
16431;BME280;8325;49.284;7.238;2022-09-09T09:37:17;98418.19;;;17.77;72.27
16431;BME280;8325;49.284;7.238;2022-09-09T09:41:38;98422.91;;;18.05;71.77
16431;BME280;8325;49.284;7.238;2022-09-09T09:45:50;98412.69;;;18.08;71.56
16431;BME280;8325;49.284;7.238;2022-09-09T09:50:22;98408.16;;;17.97;71.83
16431;BME280;8325;49.284;7.238;2022-09-09T09:54:41;98400.13;;;17.92;71.05
16431;BME280;8325;49.284;7.238;2022-09-09T09:58:54;98410.19;;;17.83;72.18
16431;BME280;8325;49.284;7.238;2022-09-09T10:03:26;98422.53;;;17.71;74.82
16431;BME280;8325;49.284;7.238;2022-09-09T10:07:39;98422.91;;;17.38;79.30
16431;BME280;8325;49.284;7.238;2022-09-09T10:12:07;98411.19;;;17.15;81.70
16431;BME280;8325;49.284;7.238;2022-09-09T10:30:19;98395.25;;;18.31;79.50
16431;BME280;8325;49.284;7.238;2022-09-09T10:35:09;98389.19;;;18.42;77.03
16431;BME280;8325;49.284;7.238;2022-09-09T10:39:35;98392.75;;;18.36;76.45
16431;BME280;8325;49.284;7.238;2022-09-09T11:03:02;98377.53;;;19.37;70.82
16431;BME280;8325;49.284;7.238;2022-09-09T11:07:25;98377.84;;;19.00;74.14
16431;BME280;8325;49.284;7.238;2022-09-09T11:11:43;98395.66;;;18.58;74.77
16431;BME280;8325;49.284;7.238;2022-09-09T11:16:05;98400.00;;;18.29;76.54
16431;BME280;8325;49.284;7.238;2022-09-09T11:20:23;98490.25;;;17.84;78.18
16431;BME280;8325;49.284;7.238;2022-09-09T11:24:43;98424.50;;;17.02;74.89
16431;BME280;8325;49.284;7.238;2022-09-09T11:29:07;98407.41;;;17.60;78.80
16431;BME280;8325;49.284;7.238;2022-09-09T11:38:00;98409.97;;;18.27;77.39
16431;BME280;8325;49.284;7.238;2022-09-09T11:42:20;98403.84;;;18.14;78.46
16431;BME280;8325;49.284;7.238;2022-09-09T11:46:38;98382.97;;;18.25;80.54
16431;BME280;8325;49.284;7.238;2022-09-09T11:50:59;98382.72;;;18.38;80.67
16431;BME280;8325;49.284;7.238;2022-09-09T11:55:27;98395.03;;;18.44;79.66
16431;BME280;8325;49.284;7.238;2022-09-09T11:59:56;98387.63;;;18.76;76.99
16431;BME280;8325;49.284;7.238;2022-09-09T12:04:29;98387.38;;;18.78;75.90
16431;BME280;8325;49.284;7.238;2022-09-09T12:14:36;98398.72;;;18.20;75.92
16431;BME280;8325;49.284;7.238;2022-09-09T12:18:50;98398.75;;;17.89;77.33
16431;BME280;8325;49.284;7.238;2022-09-09T12:23:50;98398.16;;;17.69;77.71
16431;BME280;8325;49.284;7.238;2022-09-09T12:33:35;98401.06;;;17.49;79.46
16431;BME280;8325;49.284;7.238;2022-09-09T12:39:09;98390.78;;;17.41;82.65
16431;BME280;8325;49.284;7.238;2022-09-09T12:56:44;98366.31;;;19.06;77.22
16431;BME280;8325;49.284;7.238;2022-09-09T13:01:06;98358.53;;;18.88;76.09
16431;BME280;8325;49.284;7.238;2022-09-09T13:05:38;98361.84;;;18.60;77.66
16431;BME280;8325;49.284;7.238;2022-09-09T13:10:05;98368.63;;;18.32;77.63
16431;BME280;8325;49.284;7.238;2022-09-09T13:14:52;98358.94;;;18.26;76.63
16431;BME280;8325;49.284;7.238;2022-09-09T13:19:09;98360.69;;;18.32;76.48
16431;BME280;8325;49.284;7.238;2022-09-09T13:23:30;98370.50;;;18.91;78.27
16431;BME280;8325;49.284;7.238;2022-09-09T13:32:12;98374.88;;;18.85;73.24
16431;BME280;8325;49.284;7.238;2022-09-09T13:36:50;98367.03;;;18.67;75.34
16431;BME280;8325;49.284;7.238;2022-09-09T13:41:47;98377.47;;;18.61;75.24
16431;BME280;8325;49.284;7.238;2022-09-09T13:47:06;98357.25;;;18.67;71.98
16431;BME280;8325;49.284;7.238;2022-09-09T14:01:09;98347.16;;;19.57;67.41
16431;BME280;8325;49.284;7.238;2022-09-09T14:05:22;98350.22;;;19.77;66.34
16431;BME280;8325;49.284;7.238;2022-09-09T14:09:34;98353.78;;;19.99;64.43
16431;BME280;8325;49.284;7.238;2022-09-09T14:13:46;98356.66;;;19.98;64.25
16431;BME280;8325;49.284;7.238;2022-09-09T14:17:57;98347.97;;;19.86;63.35
16431;BME280;8325;49.284;7.238;2022-09-09T14:22:10;98357.59;;;19.75;63.41
16431;BME280;8325;49.284;7.238;2022-09-09T14:26:22;98363.56;;;19.82;63.49
16431;BME280;8325;49.284;7.238;2022-09-09T14:30:34;98359.25;;;19.93;63.36
16431;BME280;8325;49.284;7.238;2022-09-09T14:34:46;98354.47;;;19.78;64.12
16431;BME280;8325;49.284;7.238;2022-09-09T14:39:00;98354.16;;;19.74;65.28
16431;BME280;8325;49.284;7.238;2022-09-09T14:43:12;98351.19;;;19.71;65.25
16431;BME280;8325;49.284;7.238;2022-09-09T14:47:23;98349.38;;;19.48;66.16
16431;BME280;8325;49.284;7.238;2022-09-09T14:51:35;98345.16;;;19.06;67.23
16431;BME280;8325;49.284;7.238;2022-09-09T14:55:47;98345.06;;;18.78;67.32
16431;BME280;8325;49.284;7.238;2022-09-09T14:59:59;98340.91;;;18.58;71.41
16431;BME280;8325;49.284;7.238;2022-09-09T15:04:12;98326.88;;;18.70;72.89
16431;BME280;8325;49.284;7.238;2022-09-09T15:08:25;98320.09;;;18.74;72.16
16431;BME280;8325;49.284;7.238;2022-09-09T15:12:37;98315.94;;;18.78;72.10
16431;BME280;8325;49.284;7.238;2022-09-09T15:16:49;98315.38;;;18.88;71.52
16431;BME280;8325;49.284;7.238;2022-09-09T15:21:04;98317.66;;;18.96;69.37
16431;BME280;8325;49.284;7.238;2022-09-09T15:25:16;98307.78;;;18.79;68.51
16431;BME280;8325;49.284;7.238;2022-09-09T15:29:29;98321.59;;;18.46;69.64
16431;BME280;8325;49.284;7.238;2022-09-09T15:33:41;98337.69;;;18.33;69.86
16431;BME280;8325;49.284;7.238;2022-09-09T15:37:52;98347.69;;;18.31;70.74
16431;BME280;8325;49.284;7.238;2022-09-09T15:42:04;98358.59;;;18.23;70.58
16431;BME280;8325;49.284;7.238;2022-09-09T15:46:36;98355.59;;;18.19;71.52
16431;BME280;8325;49.284;7.238;2022-09-09T15:51:01;98359.13;;;18.13;72.07
16431;BME280;8325;49.284;7.238;2022-09-09T15:55:18;98374.66;;;18.09;72.13
16431;BME280;8325;49.284;7.238;2022-09-09T15:59:31;98425.56;;;18.05;72.50
16431;BME280;8325;49.284;7.238;2022-09-09T16:03:43;98423.91;;;17.92;63.86
16431;BME280;8325;49.284;7.238;2022-09-09T16:07:57;98394.00;;;17.61;65.92
16431;BME280;8325;49.284;7.238;2022-09-09T16:12:09;98391.59;;;17.41;62.10
16431;BME280;8325;49.284;7.238;2022-09-09T16:16:24;98392.13;;;17.32;67.92
16431;BME280;8325;49.284;7.238;2022-09-09T16:20:36;98407.28;;;17.18;69.05
16431;BME280;8325;49.284;7.238;2022-09-09T16:24:48;98448.56;;;17.12;70.43
16431;BME280;8325;49.284;7.238;2022-09-09T16:29:00;98443.78;;;16.84;74.32
16431;BME280;8325;49.284;7.238;2022-09-09T16:33:12;98406.75;;;16.41;77.01
16431;BME280;8325;49.284;7.238;2022-09-09T16:37:25;98427.16;;;16.27;77.88
16431;BME280;8325;49.284;7.238;2022-09-09T16:41:39;98431.66;;;16.20;78.89
16431;BME280;8325;49.284;7.238;2022-09-09T16:45:51;98430.59;;;15.96;78.79
16431;BME280;8325;49.284;7.238;2022-09-09T16:50:03;98429.63;;;15.83;80.59
16431;BME280;8325;49.284;7.238;2022-09-09T16:54:16;98429.78;;;15.88;80.19
16431;BME280;8325;49.284;7.238;2022-09-09T16:58:28;98437.53;;;15.83;79.57
16431;BME280;8325;49.284;7.238;2022-09-09T17:02:39;98427.75;;;15.91;79.21
16431;BME280;8325;49.284;7.238;2022-09-09T17:06:52;98424.28;;;15.97;78.53
16431;BME280;8325;49.284;7.238;2022-09-09T17:11:12;98430.91;;;16.06;78.50
16431;BME280;8325;49.284;7.238;2022-09-09T17:15:24;98426.31;;;16.01;79.86
16431;BME280;8325;49.284;7.238;2022-09-09T17:19:36;98411.59;;;15.87;81.27
16431;BME280;8325;49.284;7.238;2022-09-09T17:23:48;98420.19;;;15.69;82.93
16431;BME280;8325;49.284;7.238;2022-09-09T17:28:01;98430.53;;;15.64;83.79
16431;BME280;8325;49.284;7.238;2022-09-09T17:32:15;98434.75;;;15.65;84.51
16431;BME280;8325;49.284;7.238;2022-09-09T17:36:29;98440.03;;;15.65;85.46
16431;BME280;8325;49.284;7.238;2022-09-09T17:40:41;98442.44;;;15.66;86.30
16431;BME280;8325;49.284;7.238;2022-09-09T17:44:54;98446.09;;;15.72;86.71
16431;BME280;8325;49.284;7.238;2022-09-09T17:49:10;98454.78;;;15.66;86.52
16431;BME280;8325;49.284;7.238;2022-09-09T17:53:23;98464.75;;;15.64;86.91
16431;BME280;8325;49.284;7.238;2022-09-09T17:57:34;98460.31;;;15.58;86.61
16431;BME280;8325;49.284;7.238;2022-09-09T18:01:47;98468.22;;;15.58;87.09
16431;BME280;8325;49.284;7.238;2022-09-09T18:06:01;98472.88;;;15.56;87.26
16431;BME280;8325;49.284;7.238;2022-09-09T18:10:13;98481.78;;;15.55;87.22
16431;BME280;8325;49.284;7.238;2022-09-09T18:14:27;98482.38;;;15.57;nan
16431;BME280;8325;49.284;7.238;2022-09-09T18:18:41;98483.16;;;15.64;87.39
16431;BME280;8325;49.284;7.238;2022-09-09T18:22:52;98488.22;;;15.65;86.99
16431;BME280;8325;49.284;7.238;2022-09-09T18:27:04;98494.91;;;15.61;86.40
16431;BME280;8325;49.284;7.238;2022-09-09T18:31:18;98498.34;;;15.62;86.46
16431;BME280;8325;49.284;7.238;2022-09-09T18:35:29;98513.94;;;15.63;86.74
16431;BME280;8325;49.284;7.238;2022-09-09T18:39:41;98524.28;;;15.65;87.67
16431;BME280;8325;49.284;7.238;2022-09-09T18:43:56;98519.41;;;15.62;87.47
16431;BME280;8325;49.284;7.238;2022-09-09T18:48:08;98514.97;;;15.62;88.25
16431;BME280;8325;49.284;7.238;2022-09-09T18:52:20;98514.16;;;15.62;87.79
16431;BME280;8325;49.284;7.238;2022-09-09T18:56:31;98517.81;;;15.61;88.15
16431;BME280;8325;49.284;7.238;2022-09-09T19:00:45;98516.41;;;15.58;88.75
16431;BME280;8325;49.284;7.238;2022-09-09T19:04:56;98517.81;;;15.61;88.33
16431;BME280;8325;49.284;7.238;2022-09-09T19:09:09;98526.69;;;15.60;88.89
16431;BME280;8325;49.284;7.238;2022-09-09T19:13:21;98528.75;;;15.58;88.46
16431;BME280;8325;49.284;7.238;2022-09-09T19:17:33;98534.63;;;15.53;90.31
16431;BME280;8325;49.284;7.238;2022-09-09T19:21:46;98541.72;;;15.53;90.55
16431;BME280;8325;49.284;7.238;2022-09-09T19:26:01;98522.69;;;15.51;91.50
16431;BME280;8325;49.284;7.238;2022-09-09T19:30:13;98534.84;;;15.45;92.21
16431;BME280;8325;49.284;7.238;2022-09-09T19:34:25;98533.44;;;15.42;92.42
16431;BME280;8325;49.284;7.238;2022-09-09T19:38:37;98531.22;;;15.39;91.43
16431;BME280;8325;49.284;7.238;2022-09-09T19:42:48;98537.31;;;15.33;91.74
16431;BME280;8325;49.284;7.238;2022-09-09T19:47:04;98545.41;;;15.25;91.81
16431;BME280;8325;49.284;7.238;2022-09-09T19:51:18;98547.63;;;15.22;91.41
16431;BME280;8325;49.284;7.238;2022-09-09T19:55:30;98542.16;;;15.23;91.41
16431;BME280;8325;49.284;7.238;2022-09-09T19:59:42;98540.13;;;15.32;91.17
16431;BME280;8325;49.284;7.238;2022-09-09T20:03:56;98540.75;;;15.34;90.41
16431;BME280;8325;49.284;7.238;2022-09-09T20:08:08;98530.41;;;15.32;90.19
16431;BME280;8325;49.284;7.238;2022-09-09T20:12:19;98531.84;;;15.22;91.17
16431;BME280;8325;49.284;7.238;2022-09-09T20:16:32;98540.53;;;15.22;90.55
16431;BME280;8325;49.284;7.238;2022-09-09T20:20:43;98543.78;;;15.11;91.95
16431;BME280;8325;49.284;7.238;2022-09-09T20:24:56;98540.13;;;14.99;92.69
16431;BME280;8325;49.284;7.238;2022-09-09T20:29:10;98539.16;;;15.00;92.85
16431;BME280;8325;49.284;7.238;2022-09-09T20:33:26;98534.88;;;15.05;92.81
16431;BME280;8325;49.284;7.238;2022-09-09T20:37:39;98526.19;;;15.05;92.78
16431;BME280;8325;49.284;7.238;2022-09-09T20:41:51;98529.22;;;14.95;93.23
16431;BME280;8325;49.284;7.238;2022-09-09T20:51:47;98529.63;;;14.85;93.72
16431;BME280;8325;49.284;7.238;2022-09-09T20:56:01;98525.00;;;14.87;93.47
16431;BME280;8325;49.284;7.238;2022-09-09T21:00:13;98520.94;;;14.78;94.02
16431;BME280;8325;49.284;7.238;2022-09-09T21:04:25;98519.69;;;14.74;93.91
16431;BME280;8325;49.284;7.238;2022-09-09T21:08:36;98516.66;;;14.77;94.03
16431;BME280;8325;49.284;7.238;2022-09-09T21:12:48;98511.00;;;14.67;94.58
16431;BME280;8325;49.284;7.238;2022-09-09T21:17:00;98518.28;;;14.65;94.96
16431;BME280;8325;49.284;7.238;2022-09-09T21:21:14;98520.31;;;14.63;95.31
16431;BME280;8325;49.284;7.238;2022-09-09T21:25:26;98526.16;;;14.65;94.70
16431;BME280;8325;49.284;7.238;2022-09-09T21:29:37;98519.50;;;14.69;94.30
